sensor_id;sensor_type;location;lat;lon;timestamp;P1;durP1;ratioP1;P2;durP2;ratioP2
29344;SDS011;16339;48.748;2.222;2023-06-22T00:01:21;6.75;;;2.90;;
29344;SDS011;16339;48.748;2.222;2023-06-22T00:03:50;6.05;;;2.60;;
29344;SDS011;16339;48.748;2.222;2023-06-22T00:06:19;3.53;;;2.90;;
29344;SDS011;16339;48.748;2.222;2023-06-22T00:08:47;4.78;;;2.75;;
29344;SDS011;16339;48.748;2.222;2023-06-22T00:11:16;6.85;;;4.10;;
29344;SDS011;16339;48.748;2.222;2023-06-22T00:13:47;16.30;;;6.88;;
29344;SDS011;16339;48.748;2.222;2023-06-22T00:18:44;8.02;;;4.13;;
29344;SDS011;16339;48.748;2.222;2023-06-22T00:21:14;11.30;;;5.70;;
29344;SDS011;16339;48.748;2.222;2023-06-22T00:23:45;5.90;;;3.53;;
29344;SDS011;16339;48.748;2.222;2023-06-22T00:26:14;10.43;;;3.58;;
29344;SDS011;16339;48.748;2.222;2023-06-22T00:28:42;13.93;;;3.55;;
29344;SDS011;16339;48.748;2.222;2023-06-22T00:31:14;4.57;;;2.95;;
29344;SDS011;16339;48.748;2.222;2023-06-22T00:33:42;8.95;;;3.33;;
29344;SDS011;16339;48.748;2.222;2023-06-22T00:36:11;10.55;;;3.50;;
29344;SDS011;16339;48.748;2.222;2023-06-22T00:38:41;7.35;;;3.47;;
29344;SDS011;16339;48.748;2.222;2023-06-22T00:41:10;6.10;;;2.88;;
29344;SDS011;16339;48.748;2.222;2023-06-22T00:43:38;4.72;;;2.75;;
29344;SDS011;16339;48.748;2.222;2023-06-22T00:46:07;4.97;;;3.35;;
29344;SDS011;16339;48.748;2.222;2023-06-22T00:48:38;8.00;;;3.35;;
29344;SDS011;16339;48.748;2.222;2023-06-22T00:51:09;5.22;;;2.92;;
29344;SDS011;16339;48.748;2.222;2023-06-22T00:53:38;7.38;;;3.10;;
29344;SDS011;16339;48.748;2.222;2023-06-22T00:56:08;6.93;;;3.55;;
29344;SDS011;16339;48.748;2.222;2023-06-22T00:58:38;11.88;;;3.42;;
29344;SDS011;16339;48.748;2.222;2023-06-22T01:01:07;4.55;;;3.22;;
29344;SDS011;16339;48.748;2.222;2023-06-22T01:03:38;4.63;;;3.33;;
29344;SDS011;16339;48.748;2.222;2023-06-22T01:08:39;3.30;;;2.70;;
29344;SDS011;16339;48.748;2.222;2023-06-22T01:11:16;3.78;;;2.75;;
29344;SDS011;16339;48.748;2.222;2023-06-22T01:13:50;5.30;;;3.53;;
29344;SDS011;16339;48.748;2.222;2023-06-22T01:16:26;5.28;;;2.92;;
29344;SDS011;16339;48.748;2.222;2023-06-22T01:19:01;8.55;;;3.25;;
29344;SDS011;16339;48.748;2.222;2023-06-22T01:21:43;5.32;;;3.50;;
29344;SDS011;16339;48.748;2.222;2023-06-22T01:24:15;4.68;;;3.10;;
29344;SDS011;16339;48.748;2.222;2023-06-22T01:26:52;4.90;;;3.17;;
29344;SDS011;16339;48.748;2.222;2023-06-22T01:29:31;6.07;;;3.25;;
29344;SDS011;16339;48.748;2.222;2023-06-22T01:32:02;5.40;;;3.65;;
29344;SDS011;16339;48.748;2.222;2023-06-22T01:34:32;13.07;;;6.03;;
29344;SDS011;16339;48.748;2.222;2023-06-22T01:37:03;10.40;;;5.72;;
29344;SDS011;16339;48.748;2.222;2023-06-22T01:39:32;10.10;;;5.13;;
29344;SDS011;16339;48.748;2.222;2023-06-22T01:42:01;9.90;;;4.63;;
29344;SDS011;16339;48.748;2.222;2023-06-22T01:44:34;10.70;;;3.88;;
29344;SDS011;16339;48.748;2.222;2023-06-22T01:47:03;8.13;;;3.70;;
29344;SDS011;16339;48.748;2.222;2023-06-22T01:49:32;12.80;;;4.05;;
29344;SDS011;16339;48.748;2.222;2023-06-22T01:52:01;6.72;;;3.75;;
29344;SDS011;16339;48.748;2.222;2023-06-22T01:54:31;7.57;;;3.70;;
29344;SDS011;16339;48.748;2.222;2023-06-22T01:57:00;7.15;;;3.60;;
29344;SDS011;16339;48.748;2.222;2023-06-22T01:59:31;7.60;;;3.33;;
29344;SDS011;16339;48.748;2.222;2023-06-22T02:02:09;7.90;;;3.47;;
29344;SDS011;16339;48.748;2.222;2023-06-22T02:04:40;9.82;;;3.92;;
29344;SDS011;16339;48.748;2.222;2023-06-22T02:07:12;6.43;;;3.30;;
29344;SDS011;16339;48.748;2.222;2023-06-22T02:09:45;7.40;;;3.17;;
29344;SDS011;16339;48.748;2.222;2023-06-22T02:12:17;7.10;;;3.33;;
29344;SDS011;16339;48.748;2.222;2023-06-22T02:14:55;11.75;;;3.25;;
29344;SDS011;16339;48.748;2.222;2023-06-22T02:17:25;5.80;;;3.53;;
29344;SDS011;16339;48.748;2.222;2023-06-22T02:19:58;6.75;;;3.10;;
29344;SDS011;16339;48.748;2.222;2023-06-22T02:22:26;4.75;;;2.90;;
29344;SDS011;16339;48.748;2.222;2023-06-22T02:24:55;6.95;;;3.20;;
29344;SDS011;16339;48.748;2.222;2023-06-22T02:27:24;6.63;;;3.53;;
29344;SDS011;16339;48.748;2.222;2023-06-22T02:29:56;8.00;;;3.05;;
29344;SDS011;16339;48.748;2.222;2023-06-22T02:32:24;7.28;;;3.22;;
29344;SDS011;16339;48.748;2.222;2023-06-22T02:34:53;5.10;;;3.08;;
29344;SDS011;16339;48.748;2.222;2023-06-22T02:37:22;15.13;;;3.75;;
29344;SDS011;16339;48.748;2.222;2023-06-22T02:39:54;7.47;;;3.40;;
29344;SDS011;16339;48.748;2.222;2023-06-22T02:42:23;5.75;;;3.75;;
29344;SDS011;16339;48.748;2.222;2023-06-22T02:44:52;11.70;;;4.60;;
29344;SDS011;16339;48.748;2.222;2023-06-22T02:47:23;11.75;;;3.17;;
29344;SDS011;16339;48.748;2.222;2023-06-22T02:52:20;7.68;;;3.30;;
29344;SDS011;16339;48.748;2.222;2023-06-22T02:54:49;8.02;;;3.38;;
29344;SDS011;16339;48.748;2.222;2023-06-22T02:57:17;7.55;;;3.15;;
29344;SDS011;16339;48.748;2.222;2023-06-22T02:59:46;8.88;;;4.05;;
29344;SDS011;16339;48.748;2.222;2023-06-22T03:02:15;9.93;;;4.03;;
29344;SDS011;16339;48.748;2.222;2023-06-22T03:04:49;11.82;;;4.00;;
29344;SDS011;16339;48.748;2.222;2023-06-22T03:07:18;8.73;;;4.05;;
29344;SDS011;16339;48.748;2.222;2023-06-22T03:09:47;6.63;;;4.25;;
29344;SDS011;16339;48.748;2.222;2023-06-22T03:12:16;6.72;;;4.40;;
29344;SDS011;16339;48.748;2.222;2023-06-22T03:14:45;11.48;;;3.97;;
29344;SDS011;16339;48.748;2.222;2023-06-22T03:17:14;11.07;;;4.60;;
29344;SDS011;16339;48.748;2.222;2023-06-22T03:19:42;12.75;;;4.00;;
29344;SDS011;16339;48.748;2.222;2023-06-22T03:22:13;5.97;;;3.78;;
29344;SDS011;16339;48.748;2.222;2023-06-22T03:27:10;8.27;;;4.18;;
29344;SDS011;16339;48.748;2.222;2023-06-22T03:29:39;7.05;;;4.03;;
29344;SDS011;16339;48.748;2.222;2023-06-22T03:32:08;7.28;;;3.58;;
29344;SDS011;16339;48.748;2.222;2023-06-22T03:34:37;9.25;;;4.65;;
29344;SDS011;16339;48.748;2.222;2023-06-22T03:37:05;6.55;;;3.83;;
29344;SDS011;16339;48.748;2.222;2023-06-22T03:39:36;8.68;;;3.95;;
29344;SDS011;16339;48.748;2.222;2023-06-22T03:44:34;5.43;;;4.00;;
29344;SDS011;16339;48.748;2.222;2023-06-22T03:47:03;8.57;;;4.40;;
29344;SDS011;16339;48.748;2.222;2023-06-22T03:49:32;4.25;;;3.40;;
29344;SDS011;16339;48.748;2.222;2023-06-22T03:52:02;8.70;;;3.70;;
29344;SDS011;16339;48.748;2.222;2023-06-22T03:54:31;8.30;;;4.10;;
29344;SDS011;16339;48.748;2.222;2023-06-22T03:57:03;9.00;;;4.25;;
29344;SDS011;16339;48.748;2.222;2023-06-22T03:59:32;9.57;;;4.35;;
29344;SDS011;16339;48.748;2.222;2023-06-22T04:02:02;7.20;;;3.65;;
29344;SDS011;16339;48.748;2.222;2023-06-22T04:04:30;6.05;;;4.60;;
29344;SDS011;16339;48.748;2.222;2023-06-22T04:07:00;9.05;;;4.25;;
29344;SDS011;16339;48.748;2.222;2023-06-22T04:09:29;8.45;;;4.40;;
29344;SDS011;16339;48.748;2.222;2023-06-22T04:11:57;6.60;;;4.55;;
29344;SDS011;16339;48.748;2.222;2023-06-22T04:14:29;14.38;;;4.53;;
29344;SDS011;16339;48.748;2.222;2023-06-22T04:19:26;8.32;;;4.43;;
29344;SDS011;16339;48.748;2.222;2023-06-22T04:21:54;7.25;;;4.35;;
29344;SDS011;16339;48.748;2.222;2023-06-22T04:24:23;10.55;;;4.40;;
29344;SDS011;16339;48.748;2.222;2023-06-22T04:26:52;7.65;;;4.55;;
29344;SDS011;16339;48.748;2.222;2023-06-22T04:29:21;10.85;;;4.95;;
29344;SDS011;16339;48.748;2.222;2023-06-22T04:31:56;5.90;;;4.18;;
29344;SDS011;16339;48.748;2.222;2023-06-22T04:34:28;10.35;;;4.40;;
29344;SDS011;16339;48.748;2.222;2023-06-22T04:36:57;10.75;;;4.78;;
29344;SDS011;16339;48.748;2.222;2023-06-22T04:39:26;7.45;;;4.03;;
29344;SDS011;16339;48.748;2.222;2023-06-22T04:41:54;6.30;;;4.38;;
29344;SDS011;16339;48.748;2.222;2023-06-22T04:44:25;20.17;;;5.05;;
29344;SDS011;16339;48.748;2.222;2023-06-22T04:46:57;9.13;;;4.43;;
29344;SDS011;16339;48.748;2.222;2023-06-22T04:49:29;9.85;;;5.45;;
29344;SDS011;16339;48.748;2.222;2023-06-22T04:52:01;11.93;;;4.53;;
29344;SDS011;16339;48.748;2.222;2023-06-22T04:54:31;13.20;;;4.93;;
29344;SDS011;16339;48.748;2.222;2023-06-22T04:57:00;10.73;;;4.95;;
29344;SDS011;16339;48.748;2.222;2023-06-22T04:59:30;15.27;;;5.15;;
29344;SDS011;16339;48.748;2.222;2023-06-22T05:02:02;16.58;;;5.10;;
29344;SDS011;16339;48.748;2.222;2023-06-22T05:04:31;10.20;;;5.05;;
29344;SDS011;16339;48.748;2.222;2023-06-22T05:07:00;13.27;;;5.20;;
29344;SDS011;16339;48.748;2.222;2023-06-22T05:09:30;7.97;;;4.97;;
29344;SDS011;16339;48.748;2.222;2023-06-22T05:11:59;8.75;;;4.72;;
29344;SDS011;16339;48.748;2.222;2023-06-22T05:14:29;13.52;;;5.10;;
29344;SDS011;16339;48.748;2.222;2023-06-22T05:16:58;11.13;;;5.43;;
29344;SDS011;16339;48.748;2.222;2023-06-22T05:19:38;11.18;;;5.15;;
29344;SDS011;16339;48.748;2.222;2023-06-22T05:22:10;14.30;;;5.43;;
29344;SDS011;16339;48.748;2.222;2023-06-22T05:24:39;16.65;;;5.53;;
29344;SDS011;16339;48.748;2.222;2023-06-22T05:27:07;15.95;;;5.50;;
29344;SDS011;16339;48.748;2.222;2023-06-22T05:29:36;8.60;;;5.15;;
29344;SDS011;16339;48.748;2.222;2023-06-22T05:32:08;8.30;;;5.30;;
29344;SDS011;16339;48.748;2.222;2023-06-22T05:34:36;10.70;;;5.57;;
29344;SDS011;16339;48.748;2.222;2023-06-22T05:37:05;12.32;;;6.55;;
29344;SDS011;16339;48.748;2.222;2023-06-22T05:39:34;17.15;;;6.85;;
29344;SDS011;16339;48.748;2.222;2023-06-22T05:42:04;10.70;;;6.00;;
29344;SDS011;16339;48.748;2.222;2023-06-22T05:44:33;11.23;;;7.03;;
29344;SDS011;16339;48.748;2.222;2023-06-22T05:47:02;14.48;;;7.28;;
29344;SDS011;16339;48.748;2.222;2023-06-22T05:49:34;18.23;;;7.75;;
29344;SDS011;16339;48.748;2.222;2023-06-22T05:54:32;24.50;;;8.05;;
29344;SDS011;16339;48.748;2.222;2023-06-22T05:57:00;14.90;;;7.93;;
29344;SDS011;16339;48.748;2.222;2023-06-22T05:59:29;17.15;;;8.07;;
29344;SDS011;16339;48.748;2.222;2023-06-22T06:01:58;17.85;;;9.27;;
29344;SDS011;16339;48.748;2.222;2023-06-22T06:04:26;20.63;;;9.27;;
29344;SDS011;16339;48.748;2.222;2023-06-22T06:06:58;22.77;;;8.70;;
29344;SDS011;16339;48.748;2.222;2023-06-22T06:11:55;21.27;;;9.32;;
29344;SDS011;16339;48.748;2.222;2023-06-22T06:14:25;23.77;;;9.43;;
29344;SDS011;16339;48.748;2.222;2023-06-22T06:16:54;24.73;;;10.30;;
29344;SDS011;16339;48.748;2.222;2023-06-22T06:19:22;30.13;;;10.93;;
29344;SDS011;16339;48.748;2.222;2023-06-22T06:21:51;18.85;;;9.82;;
29344;SDS011;16339;48.748;2.222;2023-06-22T06:24:22;28.77;;;11.73;;
29344;SDS011;16339;48.748;2.222;2023-06-22T06:29:19;25.15;;;12.68;;
29344;SDS011;16339;48.748;2.222;2023-06-22T06:31:48;23.95;;;11.77;;
29344;SDS011;16339;48.748;2.222;2023-06-22T06:34:17;23.02;;;11.02;;
29344;SDS011;16339;48.748;2.222;2023-06-22T06:36:46;22.63;;;11.20;;
29344;SDS011;16339;48.748;2.222;2023-06-22T06:39:15;27.40;;;11.95;;
29344;SDS011;16339;48.748;2.222;2023-06-22T06:41:46;26.30;;;13.75;;
29344;SDS011;16339;48.748;2.222;2023-06-22T06:46:43;35.70;;;14.77;;
29344;SDS011;16339;48.748;2.222;2023-06-22T06:49:12;37.03;;;14.52;;
29344;SDS011;16339;48.748;2.222;2023-06-22T06:51:41;32.33;;;15.07;;
29344;SDS011;16339;48.748;2.222;2023-06-22T06:54:10;46.92;;;16.00;;
29344;SDS011;16339;48.748;2.222;2023-06-22T06:56:38;31.10;;;15.25;;
29344;SDS011;16339;48.748;2.222;2023-06-22T06:59:15;38.38;;;15.45;;
29344;SDS011;16339;48.748;2.222;2023-06-22T07:04:13;33.83;;;17.45;;
29344;SDS011;16339;48.748;2.222;2023-06-22T07:06:42;39.78;;;17.42;;
29344;SDS011;16339;48.748;2.222;2023-06-22T07:09:11;39.22;;;19.92;;
29344;SDS011;16339;48.748;2.222;2023-06-22T07:11:39;36.78;;;18.25;;
29344;SDS011;16339;48.748;2.222;2023-06-22T07:14:08;36.38;;;17.77;;
29344;SDS011;16339;48.748;2.222;2023-06-22T07:16:39;44.85;;;20.20;;
29344;SDS011;16339;48.748;2.222;2023-06-22T07:21:39;37.08;;;18.10;;
29344;SDS011;16339;48.748;2.222;2023-06-22T07:24:08;36.72;;;19.77;;
29344;SDS011;16339;48.748;2.222;2023-06-22T07:26:37;36.28;;;20.98;;
29344;SDS011;16339;48.748;2.222;2023-06-22T07:29:10;36.92;;;19.88;;
29344;SDS011;16339;48.748;2.222;2023-06-22T07:31:42;34.28;;;19.55;;
29344;SDS011;16339;48.748;2.222;2023-06-22T07:34:11;38.25;;;20.70;;
29344;SDS011;16339;48.748;2.222;2023-06-22T07:36:39;46.38;;;23.75;;
29344;SDS011;16339;48.748;2.222;2023-06-22T07:39:08;40.03;;;22.70;;
29344;SDS011;16339;48.748;2.222;2023-06-22T07:41:38;35.33;;;20.65;;
29344;SDS011;16339;48.748;2.222;2023-06-22T07:44:07;33.45;;;21.08;;
29344;SDS011;16339;48.748;2.222;2023-06-22T07:46:36;40.17;;;22.00;;
29344;SDS011;16339;48.748;2.222;2023-06-22T07:49:07;40.55;;;23.48;;
29344;SDS011;16339;48.748;2.222;2023-06-22T07:51:36;46.13;;;23.10;;
29344;SDS011;16339;48.748;2.222;2023-06-22T07:54:04;49.78;;;24.52;;
29344;SDS011;16339;48.748;2.222;2023-06-22T07:56:33;38.47;;;22.55;;
29344;SDS011;16339;48.748;2.222;2023-06-22T07:59:02;39.97;;;22.17;;
29344;SDS011;16339;48.748;2.222;2023-06-22T08:01:30;47.83;;;24.65;;
29344;SDS011;16339;48.748;2.222;2023-06-22T08:03:59;42.03;;;24.08;;
29344;SDS011;16339;48.748;2.222;2023-06-22T08:06:32;44.00;;;22.85;;
29344;SDS011;16339;48.748;2.222;2023-06-22T08:09:00;52.40;;;23.85;;
29344;SDS011;16339;48.748;2.222;2023-06-22T08:11:29;50.45;;;24.40;;
29344;SDS011;16339;48.748;2.222;2023-06-22T08:13:58;46.00;;;25.60;;
29344;SDS011;16339;48.748;2.222;2023-06-22T08:16:27;51.75;;;25.42;;
29344;SDS011;16339;48.748;2.222;2023-06-22T08:18:55;45.05;;;25.17;;
29344;SDS011;16339;48.748;2.222;2023-06-22T08:21:24;41.92;;;22.73;;
29344;SDS011;16339;48.748;2.222;2023-06-22T08:23:55;37.25;;;22.23;;
29344;SDS011;16339;48.748;2.222;2023-06-22T08:28:52;35.13;;;21.00;;
29344;SDS011;16339;48.748;2.222;2023-06-22T08:31:21;39.08;;;21.63;;
29344;SDS011;16339;48.748;2.222;2023-06-22T08:33:50;40.88;;;21.75;;
29344;SDS011;16339;48.748;2.222;2023-06-22T08:36:19;43.28;;;22.00;;
29344;SDS011;16339;48.748;2.222;2023-06-22T08:38:47;54.05;;;23.13;;
29344;SDS011;16339;48.748;2.222;2023-06-22T08:41:20;43.72;;;24.48;;
29344;SDS011;16339;48.748;2.222;2023-06-22T08:43:51;43.30;;;25.73;;
29344;SDS011;16339;48.748;2.222;2023-06-22T08:46:19;48.63;;;27.50;;
29344;SDS011;16339;48.748;2.222;2023-06-22T08:48:55;47.28;;;24.95;;
29344;SDS011;16339;48.748;2.222;2023-06-22T08:51:24;51.17;;;26.42;;
29344;SDS011;16339;48.748;2.222;2023-06-22T08:53:53;49.72;;;26.13;;
29344;SDS011;16339;48.748;2.222;2023-06-22T08:56:25;45.60;;;25.52;;
29344;SDS011;16339;48.748;2.222;2023-06-22T09:01:22;47.47;;;25.20;;
29344;SDS011;16339;48.748;2.222;2023-06-22T09:03:50;50.58;;;26.23;;
29344;SDS011;16339;48.748;2.222;2023-06-22T09:06:22;46.92;;;25.65;;
29344;SDS011;16339;48.748;2.222;2023-06-22T09:08:52;50.95;;;24.92;;
29344;SDS011;16339;48.748;2.222;2023-06-22T09:11:20;49.63;;;26.00;;
29344;SDS011;16339;48.748;2.222;2023-06-22T09:13:53;47.55;;;26.10;;
29344;SDS011;16339;48.748;2.222;2023-06-22T09:16:22;45.03;;;24.33;;
29344;SDS011;16339;48.748;2.222;2023-06-22T09:18:51;44.03;;;24.13;;
29344;SDS011;16339;48.748;2.222;2023-06-22T09:21:19;40.90;;;23.13;;
29344;SDS011;16339;48.748;2.222;2023-06-22T09:23:48;42.00;;;23.55;;
29344;SDS011;16339;48.748;2.222;2023-06-22T09:26:17;36.30;;;22.27;;
29344;SDS011;16339;48.748;2.222;2023-06-22T09:28:46;43.63;;;23.95;;
29344;SDS011;16339;48.748;2.222;2023-06-22T09:31:17;37.25;;;21.40;;
29344;SDS011;16339;48.748;2.222;2023-06-22T09:33:50;40.20;;;22.75;;
29344;SDS011;16339;48.748;2.222;2023-06-22T09:36:19;39.55;;;22.90;;
29344;SDS011;16339;48.748;2.222;2023-06-22T09:38:48;62.70;;;22.15;;
29344;SDS011;16339;48.748;2.222;2023-06-22T09:41:20;41.58;;;22.50;;
29344;SDS011;16339;48.748;2.222;2023-06-22T09:43:48;36.63;;;21.73;;
29344;SDS011;16339;48.748;2.222;2023-06-22T09:46:20;38.40;;;21.13;;
29344;SDS011;16339;48.748;2.222;2023-06-22T09:48:50;38.17;;;19.85;;
29344;SDS011;16339;48.748;2.222;2023-06-22T09:51:19;32.10;;;19.02;;
29344;SDS011;16339;48.748;2.222;2023-06-22T09:53:48;36.72;;;20.73;;
29344;SDS011;16339;48.748;2.222;2023-06-22T09:56:18;38.72;;;21.45;;
29344;SDS011;16339;48.748;2.222;2023-06-22T09:58:47;38.08;;;20.58;;
29344;SDS011;16339;48.748;2.222;2023-06-22T10:01:20;41.20;;;21.10;;
29344;SDS011;16339;48.748;2.222;2023-06-22T10:03:50;38.80;;;21.08;;
29344;SDS011;16339;48.748;2.222;2023-06-22T10:06:21;32.33;;;18.83;;
29344;SDS011;16339;48.748;2.222;2023-06-22T10:08:50;39.33;;;20.90;;
29344;SDS011;16339;48.748;2.222;2023-06-22T10:11:18;39.08;;;19.88;;
29344;SDS011;16339;48.748;2.222;2023-06-22T10:13:52;32.20;;;19.92;;
29344;SDS011;16339;48.748;2.222;2023-06-22T10:16:23;43.47;;;17.88;;
29344;SDS011;16339;48.748;2.222;2023-06-22T10:18:58;30.73;;;17.48;;
29344;SDS011;16339;48.748;2.222;2023-06-22T10:21:27;26.48;;;16.55;;
29344;SDS011;16339;48.748;2.222;2023-06-22T10:23:56;27.40;;;15.73;;
29344;SDS011;16339;48.748;2.222;2023-06-22T10:26:30;23.20;;;15.20;;
29344;SDS011;16339;48.748;2.222;2023-06-22T10:28:59;26.70;;;15.52;;
29344;SDS011;16339;48.748;2.222;2023-06-22T10:31:31;29.17;;;15.65;;
29344;SDS011;16339;48.748;2.222;2023-06-22T10:36:28;26.40;;;16.15;;
29344;SDS011;16339;48.748;2.222;2023-06-22T10:38:57;28.40;;;15.18;;
29344;SDS011;16339;48.748;2.222;2023-06-22T10:41:27;22.77;;;13.70;;
29344;SDS011;16339;48.748;2.222;2023-06-22T10:43:57;28.98;;;14.23;;
29344;SDS011;16339;48.748;2.222;2023-06-22T10:46:25;25.58;;;14.60;;
29344;SDS011;16339;48.748;2.222;2023-06-22T10:48:57;28.30;;;14.25;;
29344;SDS011;16339;48.748;2.222;2023-06-22T10:53:54;20.60;;;13.40;;
29344;SDS011;16339;48.748;2.222;2023-06-22T10:56:22;24.83;;;13.02;;
29344;SDS011;16339;48.748;2.222;2023-06-22T10:58:51;27.63;;;13.30;;
29344;SDS011;16339;48.748;2.222;2023-06-22T11:01:20;28.90;;;12.75;;
29344;SDS011;16339;48.748;2.222;2023-06-22T11:03:48;23.77;;;12.90;;
29344;SDS011;16339;48.748;2.222;2023-06-22T11:06:20;22.00;;;11.98;;
29344;SDS011;16339;48.748;2.222;2023-06-22T11:11:17;21.67;;;12.05;;
29344;SDS011;16339;48.748;2.222;2023-06-22T11:13:45;19.30;;;10.98;;
29344;SDS011;16339;48.748;2.222;2023-06-22T11:16:14;22.20;;;11.55;;
29344;SDS011;16339;48.748;2.222;2023-06-22T11:18:43;18.08;;;11.27;;
29344;SDS011;16339;48.748;2.222;2023-06-22T11:21:12;20.35;;;11.57;;
29344;SDS011;16339;48.748;2.222;2023-06-22T11:23:44;17.92;;;11.88;;
29344;SDS011;16339;48.748;2.222;2023-06-22T11:26:13;14.73;;;10.95;;
29344;SDS011;16339;48.748;2.222;2023-06-22T11:28:42;24.77;;;11.10;;
29344;SDS011;16339;48.748;2.222;2023-06-22T11:31:11;21.48;;;11.10;;
29344;SDS011;16339;48.748;2.222;2023-06-22T11:33:39;17.85;;;10.38;;
29344;SDS011;16339;48.748;2.222;2023-06-22T11:36:10;20.60;;;10.57;;
29344;SDS011;16339;48.748;2.222;2023-06-22T11:38:40;19.13;;;10.77;;
29344;SDS011;16339;48.748;2.222;2023-06-22T11:41:11;15.80;;;10.33;;
29344;SDS011;16339;48.748;2.222;2023-06-22T11:46:08;17.85;;;9.43;;
29344;SDS011;16339;48.748;2.222;2023-06-22T11:48:37;16.35;;;9.70;;
29344;SDS011;16339;48.748;2.222;2023-06-22T11:51:06;19.17;;;10.43;;
29344;SDS011;16339;48.748;2.222;2023-06-22T11:53:35;18.98;;;10.18;;
29344;SDS011;16339;48.748;2.222;2023-06-22T11:56:04;18.70;;;9.85;;
29344;SDS011;16339;48.748;2.222;2023-06-22T11:58:35;16.80;;;10.80;;
29344;SDS011;16339;48.748;2.222;2023-06-22T12:03:34;17.55;;;9.52;;
29344;SDS011;16339;48.748;2.222;2023-06-22T12:06:03;16.92;;;9.45;;
29344;SDS011;16339;48.748;2.222;2023-06-22T12:08:31;17.67;;;8.85;;
29344;SDS011;16339;48.748;2.222;2023-06-22T12:11:00;21.00;;;10.30;;
29344;SDS011;16339;48.748;2.222;2023-06-22T12:13:29;15.55;;;10.02;;
29344;SDS011;16339;48.748;2.222;2023-06-22T12:16:00;20.55;;;10.88;;
29344;SDS011;16339;48.748;2.222;2023-06-22T12:18:29;21.63;;;10.48;;
29344;SDS011;16339;48.748;2.222;2023-06-22T12:20:57;19.23;;;10.85;;
29344;SDS011;16339;48.748;2.222;2023-06-22T12:23:26;15.27;;;10.32;;
29344;SDS011;16339;48.748;2.222;2023-06-22T12:25:55;19.90;;;10.80;;
29344;SDS011;16339;48.748;2.222;2023-06-22T12:28:24;18.50;;;10.30;;
29344;SDS011;16339;48.748;2.222;2023-06-22T12:30:53;15.05;;;10.40;;
29344;SDS011;16339;48.748;2.222;2023-06-22T12:33:24;16.85;;;10.77;;
29344;SDS011;16339;48.748;2.222;2023-06-22T12:38:21;15.65;;;8.75;;
29344;SDS011;16339;48.748;2.222;2023-06-22T12:40:50;16.30;;;9.85;;
29344;SDS011;16339;48.748;2.222;2023-06-22T12:43:19;15.13;;;9.23;;
29344;SDS011;16339;48.748;2.222;2023-06-22T12:45:48;16.38;;;10.52;;
29344;SDS011;16339;48.748;2.222;2023-06-22T12:48:16;17.33;;;9.27;;
29344;SDS011;16339;48.748;2.222;2023-06-22T12:50:48;17.50;;;9.70;;
29344;SDS011;16339;48.748;2.222;2023-06-22T12:53:16;15.63;;;8.95;;
29344;SDS011;16339;48.748;2.222;2023-06-22T12:55:45;21.88;;;9.15;;
29344;SDS011;16339;48.748;2.222;2023-06-22T12:58:14;16.40;;;8.68;;
29344;SDS011;16339;48.748;2.222;2023-06-22T13:00:42;18.73;;;9.02;;
29344;SDS011;16339;48.748;2.222;2023-06-22T13:03:11;15.50;;;8.50;;
29344;SDS011;16339;48.748;2.222;2023-06-22T13:05:40;15.73;;;9.00;;
29344;SDS011;16339;48.748;2.222;2023-06-22T13:08:11;16.55;;;9.18;;
29344;SDS011;16339;48.748;2.222;2023-06-22T13:13:08;12.13;;;8.23;;
29344;SDS011;16339;48.748;2.222;2023-06-22T13:15:37;15.80;;;9.50;;
29344;SDS011;16339;48.748;2.222;2023-06-22T13:18:05;13.25;;;9.18;;
29344;SDS011;16339;48.748;2.222;2023-06-22T13:20:34;24.58;;;9.57;;
29344;SDS011;16339;48.748;2.222;2023-06-22T13:23:03;12.65;;;8.57;;
29344;SDS011;16339;48.748;2.222;2023-06-22T13:25:34;12.80;;;8.02;;
29344;SDS011;16339;48.748;2.222;2023-06-22T13:28:03;14.95;;;9.35;;
29344;SDS011;16339;48.748;2.222;2023-06-22T13:30:33;16.33;;;8.82;;
29344;SDS011;16339;48.748;2.222;2023-06-22T13:33:02;15.77;;;9.10;;
29344;SDS011;16339;48.748;2.222;2023-06-22T13:35:31;20.02;;;10.50;;
29344;SDS011;16339;48.748;2.222;2023-06-22T13:38:00;16.77;;;10.43;;
29344;SDS011;16339;48.748;2.222;2023-06-22T13:40:29;16.98;;;11.02;;
29344;SDS011;16339;48.748;2.222;2023-06-22T13:43:00;15.77;;;10.38;;
29344;SDS011;16339;48.748;2.222;2023-06-22T13:45:29;14.73;;;10.23;;
29344;SDS011;16339;48.748;2.222;2023-06-22T13:47:57;18.27;;;12.75;;
29344;SDS011;16339;48.748;2.222;2023-06-22T13:50:26;17.65;;;10.48;;
29344;SDS011;16339;48.748;2.222;2023-06-22T13:52:55;17.77;;;11.48;;
29344;SDS011;16339;48.748;2.222;2023-06-22T13:55:24;16.08;;;9.82;;
29344;SDS011;16339;48.748;2.222;2023-06-22T13:57:53;15.77;;;9.88;;
29344;SDS011;16339;48.748;2.222;2023-06-22T14:00:24;18.85;;;9.68;;
29344;SDS011;16339;48.748;2.222;2023-06-22T14:02:53;14.15;;;10.07;;
29344;SDS011;16339;48.748;2.222;2023-06-22T14:05:23;21.63;;;9.82;;
29344;SDS011;16339;48.748;2.222;2023-06-22T14:07:52;15.90;;;10.48;;
29344;SDS011;16339;48.748;2.222;2023-06-22T14:10:21;19.08;;;11.32;;
29344;SDS011;16339;48.748;2.222;2023-06-22T14:12:49;19.23;;;9.70;;
29344;SDS011;16339;48.748;2.222;2023-06-22T14:15:18;19.38;;;9.52;;
29344;SDS011;16339;48.748;2.222;2023-06-22T14:17:50;14.32;;;9.30;;
29344;SDS011;16339;48.748;2.222;2023-06-22T14:20:19;22.40;;;9.40;;
29344;SDS011;16339;48.748;2.222;2023-06-22T14:22:47;14.50;;;9.00;;
29344;SDS011;16339;48.748;2.222;2023-06-22T14:25:16;18.17;;;9.13;;
29344;SDS011;16339;48.748;2.222;2023-06-22T14:27:45;19.42;;;10.00;;
29344;SDS011;16339;48.748;2.222;2023-06-22T14:30:13;13.82;;;8.10;;
29344;SDS011;16339;48.748;2.222;2023-06-22T14:37:56;17.15;;;8.32;;
29344;SDS011;16339;48.748;2.222;2023-06-22T14:40:24;16.48;;;7.68;;
29344;SDS011;16339;48.748;2.222;2023-06-22T14:42:53;12.70;;;6.88;;
29344;SDS011;16339;48.748;2.222;2023-06-22T14:45:28;13.85;;;7.63;;
29344;SDS011;16339;48.748;2.222;2023-06-22T14:47:59;17.30;;;7.53;;
29344;SDS011;16339;48.748;2.222;2023-06-22T14:50:27;15.23;;;7.07;;
29344;SDS011;16339;48.748;2.222;2023-06-22T14:52:59;11.48;;;7.03;;
29344;SDS011;16339;48.748;2.222;2023-06-22T14:57:58;16.38;;;6.95;;
29344;SDS011;16339;48.748;2.222;2023-06-22T15:00:27;11.13;;;6.55;;
29344;SDS011;16339;48.748;2.222;2023-06-22T15:02:56;12.52;;;6.20;;
29344;SDS011;16339;48.748;2.222;2023-06-22T15:05:27;17.40;;;6.93;;
29344;SDS011;16339;48.748;2.222;2023-06-22T15:07:58;11.63;;;6.63;;
29344;SDS011;16339;48.748;2.222;2023-06-22T15:10:29;10.95;;;5.82;;
29344;SDS011;16339;48.748;2.222;2023-06-22T15:12:58;11.88;;;5.40;;
29344;SDS011;16339;48.748;2.222;2023-06-22T15:15:26;9.55;;;5.72;;
29344;SDS011;16339;48.748;2.222;2023-06-22T15:17:55;12.10;;;5.68;;
29344;SDS011;16339;48.748;2.222;2023-06-22T15:20:24;15.07;;;6.35;;
29344;SDS011;16339;48.748;2.222;2023-06-22T15:22:56;9.30;;;5.88;;
29344;SDS011;16339;48.748;2.222;2023-06-22T15:25:27;8.48;;;5.57;;
29344;SDS011;16339;48.748;2.222;2023-06-22T15:27:56;20.48;;;5.70;;
29344;SDS011;16339;48.748;2.222;2023-06-22T15:30:25;15.35;;;6.10;;
29344;SDS011;16339;48.748;2.222;2023-06-22T15:32:54;10.25;;;5.20;;
29344;SDS011;16339;48.748;2.222;2023-06-22T15:35:23;13.27;;;6.00;;
29344;SDS011;16339;48.748;2.222;2023-06-22T15:37:52;10.82;;;4.85;;
29344;SDS011;16339;48.748;2.222;2023-06-22T15:40:23;7.57;;;4.82;;
29344;SDS011;16339;48.748;2.222;2023-06-22T15:42:52;8.43;;;4.75;;
29344;SDS011;16339;48.748;2.222;2023-06-22T15:45:21;6.80;;;4.75;;
29344;SDS011;16339;48.748;2.222;2023-06-22T15:47:49;5.82;;;4.10;;